Time;durP1;ratioP1;P1;durP2;ratioP2;P2;SDS_P1;SDS_P2;PMS_P1;PMS_P2;Temp;Humidity;BMP_temperature;BMP_pressure;BME280_temperature;BME280_humidity;BME280_pressure;Samples;Min_cycle;Max_cycle;Signal;HPM_P1;HPM_P2
2023/09/23 00:01:32;;;;;;;3.70;2.00;;;;;;;;;;5067843;28;20111;-58
2023/09/23 00:04:00;;;;;;;3.90;1.58;;;;;;;;;;5061378;28;20443;-58
2023/09/23 00:06:27;;;;;;;4.18;1.65;;;;;;;;;;5072420;28;20048;-58
2023/09/23 00:08:55;;;;;;;4.20;1.67;;;;;;;;;;5074117;28;20044;-58
2023/09/23 00:11:22;;;;;;;4.55;1.88;;;;;;;;;;5072880;28;20041;-58
2023/09/23 00:13:48;;;;;;;3.17;1.27;;;;;;;;;;5072153;28;20436;-58
2023/09/23 00:16:14;;;;;;;8.23;1.60;;;;;;;;;;5105808;28;20055;-58
2023/09/23 00:18:40;;;;;;;2.72;1.17;;;;;;;;;;5063664;28;20433;-58
2023/09/23 00:21:08;;;;;;;2.88;1.23;;;;;;;;;;5070040;28;20215;-58
2023/09/23 00:23:34;;;;;;;1.48;0.68;;;;;;;;;;5071350;28;20044;-58
2023/09/23 00:26:02;;;;;;;5.28;0.90;;;;;;;;;;5069030;28;20095;-58
2023/09/23 00:28:30;;;;;;;2.38;1.02;;;;;;;;;;5072345;28;20428;-58
2023/09/23 00:31:05;;;;;;;2.40;0.80;;;;;;;;;;5071633;28;20049;-58
2023/09/23 00:33:31;;;;;;;3.55;0.70;;;;;;;;;;5066803;28;20045;-58
2023/09/23 00:35:59;;;;;;;4.15;1.10;;;;;;;;;;5063822;28;20048;-58
2023/09/23 00:38:27;;;;;;;1.25;0.65;;;;;;;;;;5062608;28;20444;-58
2023/09/23 00:40:55;;;;;;;3.83;0.80;;;;;;;;;;5064060;28;20052;-58
2023/09/23 00:43:23;;;;;;;2.20;0.80;;;;;;;;;;5063209;28;20045;-58
2023/09/23 00:45:51;;;;;;;3.17;0.80;;;;;;;;;;5058116;28;20397;-57
2023/09/23 00:48:21;;;;;;;3.55;0.90;;;;;;;;;;5068129;28;20076;-58
2023/09/23 00:50:51;;;;;;;2.72;0.82;;;;;;;;;;5064508;28;20175;-58
2023/09/23 00:53:18;;;;;;;3.30;1.02;;;;;;;;;;5069419;28;20076;-58
2023/09/23 00:55:47;;;;;;;2.50;0.90;;;;;;;;;;5072368;28;20040;-58
2023/09/23 00:58:14;;;;;;;2.75;0.98;;;;;;;;;;5073227;28;20060;-58
2023/09/23 01:00:43;;;;;;;2.13;0.88;;;;;;;;;;5072413;28;20044;-58
2023/09/23 01:03:10;;;;;;;2.42;1.05;;;;;;;;;;5071802;28;20497;-58
2023/09/23 01:05:36;;;;;;;3.08;1.25;;;;;;;;;;5068379;28;20040;-58
2023/09/23 01:08:25;;;;;;;4.68;1.35;;;;;;;;;;5062383;28;20067;-58
2023/09/23 01:10:49;;;;;;;2.78;1.50;;;;;;;;;;5072259;28;20116;-58
2023/09/23 01:13:22;;;;;;;3.63;1.30;;;;;;;;;;5073067;28;20083;-58
2023/09/23 01:15:49;;;;;;;2.75;1.38;;;;;;;;;;5072535;28;20085;-58
2023/09/23 01:18:15;;;;;;;5.25;1.30;;;;;;;;;;5070439;28;20349;-58
2023/09/23 01:20:43;;;;;;;3.50;1.10;;;;;;;;;;5069430;28;20055;-58
2023/09/23 01:23:12;;;;;;;2.10;0.90;;;;;;;;;;5062892;28;20056;-58
2023/09/23 01:25:39;;;;;;;2.15;1.00;;;;;;;;;;5061842;28;20123;-58
2023/09/23 01:28:13;;;;;;;3.50;1.30;;;;;;;;;;5067427;28;20450;-58
2023/09/23 01:30:40;;;;;;;2.22;1.13;;;;;;;;;;5062838;28;20449;-58
2023/09/23 01:33:10;;;;;;;3.08;1.13;;;;;;;;;;5060155;28;20187;-58
2023/09/23 01:35:36;;;;;;;2.47;1.08;;;;;;;;;;5062440;28;20032;-58
2023/09/23 01:38:03;;;;;;;3.58;1.20;;;;;;;;;;5058339;28;20107;-58
2023/09/23 01:40:33;;;;;;;4.00;1.50;;;;;;;;;;5062254;28;20068;-58
2023/09/23 01:42:59;;;;;;;3.50;1.63;;;;;;;;;;5062967;28;20136;-58
2023/09/23 01:45:26;;;;;;;6.03;1.90;;;;;;;;;;5062744;28;20044;-58
2023/09/23 01:47:56;;;;;;;4.82;2.05;;;;;;;;;;5069890;28;20064;-58
2023/09/23 01:50:26;;;;;;;5.70;2.30;;;;;;;;;;5066807;28;20101;-58
2023/09/23 01:52:54;;;;;;;4.22;2.70;;;;;;;;;;5065178;28;20070;-58
2023/09/23 01:55:20;;;;;;;6.30;3.20;;;;;;;;;;5070564;28;20127;-58
2023/09/23 01:57:49;;;;;;;7.65;2.72;;;;;;;;;;5069549;28;20079;-58
2023/09/23 02:00:25;;;;;;;5.28;3.38;;;;;;;;;;5069675;28;20042;-58
2023/09/23 02:02:53;;;;;;;6.65;3.88;;;;;;;;;;5071441;28;20045;-58
2023/09/23 02:05:20;;;;;;;7.65;3.90;;;;;;;;;;5071160;28;20037;-58
2023/09/23 02:07:50;;;;;;;8.98;4.20;;;;;;;;;;5070260;28;20174;-58
2023/09/23 02:10:17;;;;;;;7.75;4.25;;;;;;;;;;5067596;28;20412;-58
2023/09/23 02:12:43;;;;;;;8.68;4.00;;;;;;;;;;5070466;28;20475;-58
2023/09/23 02:15:15;;;;;;;7.55;4.38;;;;;;;;;;5070471;28;20041;-57
2023/09/23 02:17:48;;;;;;;7.28;4.45;;;;;;;;;;5053914;28;20040;-58
2023/09/23 02:20:21;;;;;;;8.80;4.87;;;;;;;;;;5063384;28;20519;-58
2023/09/23 02:22:48;;;;;;;8.77;4.95;;;;;;;;;;5070690;28;20295;-58
2023/09/23 02:25:15;;;;;;;8.05;4.20;;;;;;;;;;5070300;28;20052;-58
2023/09/23 02:27:44;;;;;;;6.20;4.25;;;;;;;;;;5068678;28;20048;-58
2023/09/23 02:30:10;;;;;;;6.88;4.72;;;;;;;;;;5068823;28;20045;-58
2023/09/23 02:32:40;;;;;;;6.82;4.13;;;;;;;;;;5064480;28;20531;-58
2023/09/23 02:35:11;;;;;;;6.13;4.32;;;;;;;;;;5067665;28;20040;-58
2023/09/23 02:37:40;;;;;;;7.53;4.03;;;;;;;;;;5070019;28;20055;-58
2023/09/23 02:40:27;;;;;;;9.85;3.47;;;;;;;;;;5069917;28;20044;-58
2023/09/23 02:42:59;;;;;;;4.70;3.30;;;;;;;;;;5069773;28;20041;-58
2023/09/23 02:45:25;;;;;;;6.25;3.83;;;;;;;;;;5069909;28;20464;-58
2023/09/23 02:47:52;;;;;;;6.93;4.75;;;;;;;;;;5063046;28;20052;-58
2023/09/23 02:50:19;;;;;;;8.07;4.32;;;;;;;;;;5063329;28;20094;-58
2023/09/23 02:52:48;;;;;;;13.98;4.90;;;;;;;;;;5057986;28;20052;-58
2023/09/23 02:55:15;;;;;;;7.90;4.93;;;;;;;;;;5059571;28;20071;-58
2023/09/23 02:57:46;;;;;;;10.85;5.30;;;;;;;;;;5060696;28;20032;-58
2023/09/23 03:00:24;;;;;;;10.23;5.85;;;;;;;;;;5062209;28;20413;-58
2023/09/23 03:02:57;;;;;;;9.10;4.90;;;;;;;;;;5059615;28;20089;-58
2023/09/23 03:05:28;;;;;;;6.25;4.90;;;;;;;;;;5061392;28;20055;-58
2023/09/23 03:07:57;;;;;;;7.57;4.93;;;;;;;;;;5057770;28;20452;-58
2023/09/23 03:10:39;;;;;;;7.82;5.03;;;;;;;;;;5061807;28;20055;-58
2023/09/23 03:13:07;;;;;;;7.72;5.10;;;;;;;;;;5059434;28;20048;-58
2023/09/23 03:18:54;;;;;;;9.23;5.15;;;;;;;;;;5048504;28;20721;-58
2023/09/23 03:21:20;;;;;;;9.57;5.05;;;;;;;;;;5060226;28;20103;-58
2023/09/23 03:23:47;;;;;;;7.90;5.50;;;;;;;;;;5058152;28;20048;-58
2023/09/23 03:26:15;;;;;;;7.75;5.40;;;;;;;;;;5060388;28;20370;-58
2023/09/23 03:28:42;;;;;;;9.30;5.55;;;;;;;;;;5058864;28;20714;-58
2023/09/23 03:31:08;;;;;;;8.30;5.53;;;;;;;;;;5058949;28;20396;-58
2023/09/23 03:33:35;;;;;;;7.95;5.47;;;;;;;;;;5061224;28;20048;-58
2023/09/23 03:36:01;;;;;;;8.85;5.40;;;;;;;;;;5059692;28;20037;-58
2023/09/23 03:38:32;;;;;;;8.05;5.32;;;;;;;;;;5065347;28;20086;-58
2023/09/23 03:40:59;;;;;;;8.55;5.32;;;;;;;;;;5072184;28;20109;-58
2023/09/23 03:43:26;;;;;;;8.77;5.68;;;;;;;;;;5067181;28;20051;-58
2023/09/23 03:45:53;;;;;;;10.32;5.88;;;;;;;;;;5066713;28;20048;-58
2023/09/23 03:48:19;;;;;;;6.78;4.85;;;;;;;;;;5066260;28;20395;-58
2023/09/23 03:50:50;;;;;;;9.65;5.43;;;;;;;;;;5064239;28;20098;-58
2023/09/23 03:53:16;;;;;;;7.70;4.50;;;;;;;;;;5069389;28;20084;-58
2023/09/23 03:55:43;;;;;;;8.25;5.32;;;;;;;;;;5068906;28;20052;-58
2023/09/23 03:58:09;;;;;;;7.82;4.43;;;;;;;;;;5066063;28;20048;-58
2023/09/23 04:00:35;;;;;;;7.80;4.60;;;;;;;;;;5072437;28;20105;-58
2023/09/23 04:03:02;;;;;;;5.28;3.95;;;;;;;;;;5064341;28;20372;-58
2023/09/23 04:05:31;;;;;;;6.53;4.10;;;;;;;;;;5071331;28;20040;-58
2023/09/23 04:07:57;;;;;;;6.15;4.57;;;;;;;;;;5073318;28;20053;-58
2023/09/23 04:10:24;;;;;;;8.98;4.63;;;;;;;;;;5072109;28;20081;-58
2023/09/23 04:12:54;;;;;;;7.53;4.90;;;;;;;;;;5066446;28;20091;-58
2023/09/23 04:15:26;;;;;;;9.30;4.80;;;;;;;;;;5067588;28;20385;-58
2023/09/23 04:17:52;;;;;;;8.00;4.53;;;;;;;;;;5074024;28;20059;-58
2023/09/23 04:20:19;;;;;;;7.10;4.95;;;;;;;;;;5073062;28;20040;-58
2023/09/23 04:22:49;;;;;;;7.57;4.03;;;;;;;;;;5073717;28;20089;-57
2023/09/23 04:25:15;;;;;;;6.15;4.53;;;;;;;;;;5073282;28;20044;-58
2023/09/23 04:27:41;;;;;;;6.80;4.13;;;;;;;;;;5072392;28;20403;-57
2023/09/23 04:30:11;;;;;;;5.88;4.13;;;;;;;;;;5068669;28;20126;-58
2023/09/23 04:32:41;;;;;;;6.65;4.32;;;;;;;;;;5064223;28;20073;-58
2023/09/23 04:35:07;;;;;;;7.07;3.63;;;;;;;;;;5062341;28;20119;-58
2023/09/23 04:37:37;;;;;;;7.00;3.60;;;;;;;;;;5062913;28;20116;-58
2023/09/23 04:40:09;;;;;;;8.52;3.38;;;;;;;;;;5060437;28;20687;-58
2023/09/23 04:42:35;;;;;;;9.38;3.88;;;;;;;;;;5061954;28;20380;-58
2023/09/23 04:45:02;;;;;;;7.03;3.45;;;;;;;;;;5062117;28;20167;-58
2023/09/23 04:47:28;;;;;;;5.30;3.17;;;;;;;;;;5062554;28;20143;-58
2023/09/23 04:49:55;;;;;;;8.02;3.60;;;;;;;;;;5065230;28;20043;-58
2023/09/23 04:52:21;;;;;;;7.18;3.67;;;;;;;;;;5062113;28;20044;-58
2023/09/23 04:54:53;;;;;;;6.18;3.50;;;;;;;;;;5061835;28;20398;-56
2023/09/23 04:57:19;;;;;;;6.72;3.95;;;;;;;;;;5062193;28;20109;-57
2023/09/23 04:59:46;;;;;;;5.72;4.07;;;;;;;;;;5061127;28;20458;-58
2023/09/23 05:02:13;;;;;;;7.43;3.53;;;;;;;;;;5060957;28;20142;-58
2023/09/23 05:04:39;;;;;;;8.07;3.95;;;;;;;;;;5062422;28;20197;-58
2023/09/23 05:07:06;;;;;;;6.20;4.22;;;;;;;;;;5061568;28;20037;-58
2023/09/23 05:09:32;;;;;;;6.18;4.13;;;;;;;;;;5062957;28;20480;-58
2023/09/23 05:11:59;;;;;;;8.90;4.40;;;;;;;;;;5060979;28;20185;-58
2023/09/23 05:14:26;;;;;;;7.15;4.30;;;;;;;;;;5060885;28;20108;-57
2023/09/23 05:16:53;;;;;;;8.30;4.28;;;;;;;;;;5064130;28;20045;-57
2023/09/23 05:19:19;;;;;;;6.38;4.68;;;;;;;;;;5069420;28;20047;-57
2023/09/23 05:21:46;;;;;;;7.45;5.63;;;;;;;;;;5070778;28;20083;-58
2023/09/23 05:24:12;;;;;;;9.23;6.32;;;;;;;;;;5063490;28;20132;-58
2023/09/23 05:26:43;;;;;;;9.55;6.15;;;;;;;;;;5072523;28;20040;-58
2023/09/23 05:29:09;;;;;;;11.32;6.63;;;;;;;;;;5072320;28;20037;-59
2023/09/23 05:31:38;;;;;;;8.52;6.78;;;;;;;;;;5072008;28;20052;-58
2023/09/23 05:34:05;;;;;;;8.05;6.30;;;;;;;;;;5072063;28;20120;-58
2023/09/23 05:36:32;;;;;;;11.27;7.22;;;;;;;;;;5072421;28;20143;-58
2023/09/23 05:38:59;;;;;;;9.35;6.93;;;;;;;;;;5070466;28;20032;-59
2023/09/23 05:41:25;;;;;;;13.55;7.78;;;;;;;;;;5072182;28;20128;-58
2023/09/23 05:43:52;;;;;;;10.38;7.72;;;;;;;;;;5070470;28;20037;-67
2023/09/23 05:46:18;;;;;;;10.95;8.15;;;;;;;;;;5103982;28;20109;-58
2023/09/23 05:48:48;;;;;;;12.18;8.80;;;;;;;;;;5070006;28;20404;-58
2023/09/23 05:51:15;;;;;;;13.25;9.18;;;;;;;;;;5070775;28;20048;-58
2023/09/23 05:53:41;;;;;;;12.50;8.85;;;;;;;;;;5060699;28;20068;-58
2023/09/23 05:56:08;;;;;;;16.13;9.77;;;;;;;;;;5063142;28;20482;-58
2023/09/23 05:58:34;;;;;;;16.70;10.85;;;;;;;;;;5060265;28;20487;-58
2023/09/23 06:01:01;;;;;;;15.43;10.75;;;;;;;;;;5070391;28;20036;-58
2023/09/23 06:03:27;;;;;;;15.40;11.52;;;;;;;;;;5063112;28;20047;-58
2023/09/23 06:05:53;;;;;;;15.20;11.07;;;;;;;;;;5066828;28;20545;-58
2023/09/23 06:08:20;;;;;;;15.02;10.63;;;;;;;;;;5069015;28;20115;-58
2023/09/23 06:10:47;;;;;;;15.88;11.13;;;;;;;;;;5067609;28;20258;-58
2023/09/23 06:13:13;;;;;;;14.73;10.93;;;;;;;;;;5066786;28;20048;-58
2023/09/23 06:15:39;;;;;;;17.73;10.95;;;;;;;;;;5064991;28;20086;-59
2023/09/23 06:18:06;;;;;;;17.95;11.25;;;;;;;;;;5061963;28;20047;-58
2023/09/23 06:20:33;;;;;;;16.88;10.52;;;;;;;;;;5064480;28;20044;-58
2023/09/23 06:23:03;;;;;;;21.02;11.98;;;;;;;;;;5067084;28;20455;-58
2023/09/23 06:25:30;;;;;;;16.27;11.82;;;;;;;;;;5068523;28;20051;-58
2023/09/23 06:27:56;;;;;;;18.23;12.30;;;;;;;;;;5070388;28;20064;-58
2023/09/23 06:30:22;;;;;;;19.75;11.18;;;;;;;;;;5101493;28;20096;-58
2023/09/23 06:32:48;;;;;;;19.50;11.48;;;;;;;;;;5070468;28;20049;-58
2023/09/23 06:35:15;;;;;;;17.92;12.13;;;;;;;;;;5070046;28;20040;-58
2023/09/23 06:37:41;;;;;;;22.10;13.90;;;;;;;;;;5071560;28;20051;-59
2023/09/23 06:40:07;;;;;;;18.40;12.07;;;;;;;;;;5070106;28;20127;-58
2023/09/23 06:42:35;;;;;;;19.75;13.80;;;;;;;;;;5071341;28;20507;-59
2023/09/23 06:45:06;;;;;;;17.75;13.35;;;;;;;;;;5070412;28;20116;-58
2023/09/23 06:47:32;;;;;;;21.08;13.73;;;;;;;;;;5069352;28;20068;-58
2023/09/23 06:49:58;;;;;;;24.10;14.27;;;;;;;;;;5070292;28;20045;-58
2023/09/23 06:52:24;;;;;;;19.25;13.70;;;;;;;;;;5071298;28;20055;-58
2023/09/23 06:54:50;;;;;;;22.52;14.13;;;;;;;;;;5069526;28;20501;-58
2023/09/23 06:57:17;;;;;;;21.15;13.40;;;;;;;;;;5075444;28;20067;-58
2023/09/23 06:59:45;;;;;;;28.65;13.68;;;;;;;;;;5068822;28;20045;-59
2023/09/23 07:02:11;;;;;;;21.42;13.95;;;;;;;;;;5070682;28;20059;-59
2023/09/23 07:04:37;;;;;;;22.38;12.77;;;;;;;;;;5068562;28;20099;-59
2023/09/23 07:07:04;;;;;;;20.30;12.82;;;;;;;;;;5070755;28;20041;-59
2023/09/23 07:09:31;;;;;;;17.38;11.57;;;;;;;;;;5061798;28;20041;-59
2023/09/23 07:11:57;;;;;;;19.63;12.13;;;;;;;;;;5066214;28;20044;-58
2023/09/23 07:14:23;;;;;;;17.30;11.23;;;;;;;;;;5059029;28;20063;-58
2023/09/23 07:16:50;;;;;;;21.42;11.80;;;;;;;;;;5060275;28;20070;-58
2023/09/23 07:19:16;;;;;;;17.80;10.85;;;;;;;;;;5064449;28;20037;-59
2023/09/23 07:21:42;;;;;;;16.55;10.32;;;;;;;;;;5068022;28;20392;-59
2023/09/23 07:24:08;;;;;;;15.13;10.43;;;;;;;;;;5069849;28;20048;-58
2023/09/23 07:26:34;;;;;;;14.85;9.85;;;;;;;;;;5070462;28;20044;-58
2023/09/23 07:29:01;;;;;;;18.00;9.85;;;;;;;;;;5069566;28;20423;-58
2023/09/23 07:31:27;;;;;;;12.70;9.30;;;;;;;;;;5069646;28;20036;-58
2023/09/23 07:33:53;;;;;;;16.90;7.93;;;;;;;;;;5070501;28;20526;-58
2023/09/23 07:36:19;;;;;;;12.30;8.43;;;;;;;;;;5069601;28;20045;-58
2023/09/23 07:38:45;;;;;;;12.02;7.65;;;;;;;;;;5069509;28;20417;-58
2023/09/23 07:41:12;;;;;;;11.38;8.05;;;;;;;;;;5070774;28;20043;-58
2023/09/23 07:43:39;;;;;;;12.38;6.63;;;;;;;;;;5069551;28;20036;-58
2023/09/23 07:46:05;;;;;;;11.57;6.13;;;;;;;;;;5070327;28;20115;-58
2023/09/23 07:48:32;;;;;;;10.73;5.88;;;;;;;;;;5069313;28;20097;-58
2023/09/23 07:50:58;;;;;;;9.32;5.63;;;;;;;;;;5067890;28;20049;-58
2023/09/23 07:53:24;;;;;;;9.43;5.20;;;;;;;;;;5069500;28;20373;-58
2023/09/23 07:55:50;;;;;;;16.52;6.05;;;;;;;;;;5068814;28;20435;-58
2023/09/23 07:58:17;;;;;;;8.27;5.15;;;;;;;;;;5062711;28;20102;-58
2023/09/23 08:00:43;;;;;;;13.90;5.15;;;;;;;;;;5069362;28;20086;-58
2023/09/23 08:03:09;;;;;;;7.93;5.63;;;;;;;;;;5063293;28;20044;-58
2023/09/23 08:05:35;;;;;;;12.77;5.35;;;;;;;;;;5066937;28;20087;-58
2023/09/23 08:08:01;;;;;;;11.55;5.28;;;;;;;;;;5069474;28;20044;-58
2023/09/23 08:10:27;;;;;;;10.63;5.93;;;;;;;;;;5069571;28;20106;-58
2023/09/23 08:12:54;;;;;;;10.82;4.50;;;;;;;;;;5068486;28;20044;-58
2023/09/23 08:15:20;;;;;;;9.30;5.13;;;;;;;;;;5066317;28;20090;-58
2023/09/23 08:17:46;;;;;;;10.65;4.65;;;;;;;;;;5068909;28;20040;-58
2023/09/23 08:20:20;;;;;;;14.75;4.15;;;;;;;;;;5061307;28;20558;-58
2023/09/23 08:22:46;;;;;;;20.38;5.82;;;;;;;;;;5058906;28;20045;-58
2023/09/23 08:25:13;;;;;;;8.23;3.20;;;;;;;;;;5059887;28;20090;-58
2023/09/23 08:27:41;;;;;;;7.60;3.38;;;;;;;;;;5067615;28;20274;-58
2023/09/23 08:30:08;;;;;;;6.30;2.83;;;;;;;;;;5072360;28;20041;-58
2023/09/23 08:32:34;;;;;;;10.90;2.58;;;;;;;;;;5064620;28;20565;-58
2023/09/23 08:35:00;;;;;;;6.80;2.17;;;;;;;;;;5071496;28;20106;-58
2023/09/23 08:37:26;;;;;;;8.00;2.65;;;;;;;;;;5070925;28;20036;-58
2023/09/23 08:39:52;;;;;;;6.57;1.85;;;;;;;;;;5072085;28;20454;-58
2023/09/23 08:42:19;;;;;;;8.45;2.30;;;;;;;;;;5071180;28;20044;-58
2023/09/23 08:44:45;;;;;;;7.72;1.50;;;;;;;;;;5071574;28;20041;-58
2023/09/23 08:47:11;;;;;;;5.05;1.60;;;;;;;;;;5072241;28;20045;-58
2023/09/23 08:49:38;;;;;;;5.45;1.02;;;;;;;;;;5072273;28;20052;-58
2023/09/23 08:52:05;;;;;;;3.83;1.23;;;;;;;;;;5069844;28;20036;-58
2023/09/23 08:54:31;;;;;;;5.75;1.42;;;;;;;;;;5068488;28;20051;-58
2023/09/23 08:56:58;;;;;;;7.40;2.13;;;;;;;;;;5071529;28;20078;-58
2023/09/23 08:59:26;;;;;;;6.35;1.83;;;;;;;;;;5073316;28;20040;-58
2023/09/23 09:01:54;;;;;;;5.07;2.45;;;;;;;;;;5070211;28;20124;-58
2023/09/23 09:04:20;;;;;;;6.68;1.98;;;;;;;;;;5072602;28;20044;-58
2023/09/23 09:06:47;;;;;;;5.82;1.90;;;;;;;;;;5072335;28;20049;-58
2023/09/23 09:09:13;;;;;;;6.15;1.63;;;;;;;;;;5072265;28;20046;-58
2023/09/23 09:11:39;;;;;;;5.10;1.70;;;;;;;;;;5072291;28;20111;-58
2023/09/23 09:14:05;;;;;;;6.57;1.58;;;;;;;;;;5066728;28;20056;-58
2023/09/23 09:16:31;;;;;;;6.32;1.55;;;;;;;;;;5071397;28;20392;-58
2023/09/23 09:18:58;;;;;;;4.75;1.77;;;;;;;;;;5072387;28;20040;-58
2023/09/23 09:21:26;;;;;;;5.32;1.98;;;;;;;;;;5066085;28;20441;-58
2023/09/23 09:23:53;;;;;;;6.38;1.77;;;;;;;;;;5066626;28;20095;-58
2023/09/23 09:26:21;;;;;;;5.68;1.60;;;;;;;;;;5071129;28;20481;-59
2023/09/23 09:28:47;;;;;;;8.75;1.83;;;;;;;;;;5071736;28;20528;-58
2023/09/23 09:31:14;;;;;;;5.18;1.50;;;;;;;;;;5072624;28;20040;-58
2023/09/23 09:33:41;;;;;;;6.25;1.40;;;;;;;;;;5071388;28;20048;-58
2023/09/23 09:36:08;;;;;;;3.70;0.90;;;;;;;;;;5070331;28;20116;-58
2023/09/23 09:38:34;;;;;;;3.83;0.90;;;;;;;;;;5057515;28;20052;-58
2023/09/23 09:41:04;;;;;;;4.90;1.20;;;;;;;;;;5072179;28;20036;-58
2023/09/23 09:43:33;;;;;;;6.78;1.30;;;;;;;;;;5071547;28;20048;-58
2023/09/23 09:46:08;;;;;;;5.30;0.90;;;;;;;;;;5071748;28;20141;-58
2023/09/23 09:48:37;;;;;;;4.10;0.90;;;;;;;;;;5071175;28;20090;-58
2023/09/23 09:51:05;;;;;;;3.47;0.88;;;;;;;;;;5066918;28;20099;-58
2023/09/23 09:53:33;;;;;;;4.35;0.70;;;;;;;;;;5066849;28;20112;-58
2023/09/23 09:55:59;;;;;;;2.60;0.70;;;;;;;;;;5070223;28;20131;-58
2023/09/23 09:58:37;;;;;;;4.70;0.85;;;;;;;;;;5069751;28;20109;-58
2023/09/23 10:01:04;;;;;;;6.13;1.20;;;;;;;;;;5069777;28;20115;-58
2023/09/23 10:03:30;;;;;;;5.78;1.17;;;;;;;;;;5068491;28;20044;-58
2023/09/23 10:06:00;;;;;;;5.05;0.80;;;;;;;;;;5070369;28;20499;-58
2023/09/23 10:08:35;;;;;;;3.65;0.90;;;;;;;;;;5065223;28;20068;-58
2023/09/23 10:11:04;;;;;;;5.43;0.88;;;;;;;;;;5058268;28;20044;-58
2023/09/23 10:13:33;;;;;;;5.20;0.95;;;;;;;;;;5068823;28;20036;-58
2023/09/23 10:16:27;;;;;;;2.97;0.82;;;;;;;;;;5059844;28;20040;-58
2023/09/23 10:18:55;;;;;;;2.63;0.70;;;;;;;;;;5067487;28;20048;-58
2023/09/23 10:21:22;;;;;;;3.05;0.80;;;;;;;;;;5069583;28;20085;-58
2023/09/23 10:23:51;;;;;;;9.13;1.95;;;;;;;;;;5065712;28;20037;-58
2023/09/23 10:26:18;;;;;;;4.18;1.02;;;;;;;;;;5065149;28;20092;-58
2023/09/23 10:28:57;;;;;;;7.00;1.02;;;;;;;;;;5069651;28;20361;-58
2023/09/23 10:31:26;;;;;;;4.20;0.73;;;;;;;;;;5071509;28;20408;-58
2023/09/23 10:33:52;;;;;;;4.95;0.90;;;;;;;;;;5069294;28;20049;-58
2023/09/23 10:36:20;;;;;;;2.90;0.60;;;;;;;;;;5070691;28;20041;-58
2023/09/23 10:38:46;;;;;;;3.38;0.90;;;;;;;;;;5070761;28;20472;-58
2023/09/23 10:41:12;;;;;;;4.15;0.90;;;;;;;;;;5070392;28;20048;-58
2023/09/23 10:43:38;;;;;;;3.70;0.95;;;;;;;;;;5064316;28;20041;-58
2023/09/23 10:46:05;;;;;;;4.40;0.90;;;;;;;;;;5065685;28;20060;-58
2023/09/23 10:48:32;;;;;;;3.65;0.90;;;;;;;;;;5069885;28;20053;-58
2023/09/23 10:50:59;;;;;;;5.03;0.80;;;;;;;;;;5103644;28;20047;-58
2023/09/23 10:53:27;;;;;;;4.20;0.90;;;;;;;;;;5094225;28;20048;-58
2023/09/23 10:55:55;;;;;;;3.92;1.17;;;;;;;;;;5070971;28;20048;-58
2023/09/23 10:58:21;;;;;;;2.90;0.70;;;;;;;;;;5069936;28;20097;-58
2023/09/23 11:00:48;;;;;;;2.88;0.80;;;;;;;;;;5069428;28;20084;-58
2023/09/23 11:03:19;;;;;;;2.78;0.73;;;;;;;;;;5069821;28;20044;-58
2023/09/23 11:05:46;;;;;;;4.95;0.75;;;;;;;;;;5069930;28;20488;-58
2023/09/23 11:08:13;;;;;;;2.67;0.77;;;;;;;;;;5068827;28;20089;-58
2023/09/23 11:10:43;;;;;;;3.00;1.00;;;;;;;;;;5066791;28;20119;-58
2023/09/23 11:13:10;;;;;;;3.42;0.90;;;;;;;;;;5070717;28;20055;-58
2023/09/23 11:15:38;;;;;;;2.75;0.70;;;;;;;;;;5069795;28;20162;-58
2023/09/23 11:18:07;;;;;;;3.83;1.10;;;;;;;;;;5071053;28;20159;-58
2023/09/23 11:20:35;;;;;;;4.18;0.85;;;;;;;;;;5068996;28;20428;-58
2023/09/23 11:23:05;;;;;;;5.47;0.88;;;;;;;;;;5065639;28;20071;-58
2023/09/23 11:25:51;;;;;;;7.38;1.20;;;;;;;;;;5070763;28;20087;-58
2023/09/23 11:28:22;;;;;;;2.63;0.90;;;;;;;;;;5063923;28;20040;-58
2023/09/23 11:30:48;;;;;;;5.03;0.88;;;;;;;;;;5069994;28;20048;-58
2023/09/23 11:33:15;;;;;;;4.82;0.82;;;;;;;;;;5070292;28;20036;-58
2023/09/23 11:35:42;;;;;;;3.70;0.90;;;;;;;;;;5070014;28;20604;-58
2023/09/23 11:38:09;;;;;;;4.18;0.88;;;;;;;;;;5069563;28;20044;-58
2023/09/23 11:40:35;;;;;;;3.88;0.90;;;;;;;;;;5070446;28;20072;-58
2023/09/23 11:43:02;;;;;;;2.95;0.80;;;;;;;;;;5069590;28;20056;-58
2023/09/23 11:45:28;;;;;;;4.32;0.85;;;;;;;;;;5069859;28;20051;-58
2023/09/23 11:47:59;;;;;;;4.90;0.90;;;;;;;;;;5070283;28;20163;-58
2023/09/23 11:50:25;;;;;;;3.22;0.70;;;;;;;;;;5069801;28;20059;-58
2023/09/23 11:52:55;;;;;;;5.93;0.75;;;;;;;;;;5070515;28;20056;-58
2023/09/23 11:55:22;;;;;;;3.90;0.98;;;;;;;;;;5069651;28;20040;-58
2023/09/23 11:57:49;;;;;;;4.32;0.98;;;;;;;;;;5069244;28;20399;-58
2023/09/23 12:00:16;;;;;;;2.55;0.60;;;;;;;;;;5070169;28;20450;-58
2023/09/23 12:02:42;;;;;;;5.38;1.08;;;;;;;;;;5071307;28;20089;-58
2023/09/23 12:05:11;;;;;;;2.45;0.80;;;;;;;;;;5073256;28;20040;-58
2023/09/23 12:07:37;;;;;;;4.28;1.02;;;;;;;;;;5074080;28;20040;-58
2023/09/23 12:10:04;;;;;;;4.80;1.10;;;;;;;;;;5074244;28;20098;-58
2023/09/23 12:12:31;;;;;;;2.88;0.80;;;;;;;;;;5072302;28;20049;-58
2023/09/23 12:14:57;;;;;;;3.75;1.00;;;;;;;;;;5073983;28;20088;-58
2023/09/23 12:17:23;;;;;;;4.75;0.65;;;;;;;;;;5073864;28;20056;-59
2023/09/23 12:19:50;;;;;;;3.88;0.75;;;;;;;;;;5105556;28;20040;-58
2023/09/23 12:22:16;;;;;;;2.53;0.80;;;;;;;;;;5071761;28;20040;-58
2023/09/23 12:24:43;;;;;;;3.72;0.82;;;;;;;;;;5072393;28;20028;-58
2023/09/23 12:27:09;;;;;;;3.67;0.70;;;;;;;;;;5073760;28;20044;-58
2023/09/23 12:29:35;;;;;;;3.92;0.68;;;;;;;;;;5073101;28;20037;-58
2023/09/23 12:32:02;;;;;;;4.82;0.93;;;;;;;;;;5073160;28;20040;-58
2023/09/23 12:34:30;;;;;;;3.72;0.80;;;;;;;;;;5073906;28;20384;-58
2023/09/23 12:36:57;;;;;;;1.67;0.60;;;;;;;;;;5073775;28;20040;-58
2023/09/23 12:39:23;;;;;;;3.80;0.80;;;;;;;;;;5071711;28;20090;-58
2023/09/23 12:41:50;;;;;;;3.13;1.27;;;;;;;;;;5072784;28;20123;-58
2023/09/23 12:44:17;;;;;;;3.95;0.70;;;;;;;;;;5069892;28;20071;-58
2023/09/23 12:46:43;;;;;;;4.22;0.80;;;;;;;;;;5072472;28;20068;-58
2023/09/23 12:49:09;;;;;;;3.97;0.63;;;;;;;;;;5073302;28;20049;-58
2023/09/23 12:51:38;;;;;;;3.28;0.60;;;;;;;;;;5098582;28;20062;-58
2023/09/23 12:54:07;;;;;;;3.38;0.85;;;;;;;;;;5071286;28;20115;-58
2023/09/23 12:56:33;;;;;;;3.47;0.60;;;;;;;;;;5070381;28;20052;-58
2023/09/23 12:58:59;;;;;;;2.42;0.60;;;;;;;;;;5072705;28;20396;-58
2023/09/23 13:01:26;;;;;;;2.35;0.63;;;;;;;;;;5072509;28;20044;-58
2023/09/23 13:03:53;;;;;;;3.35;0.60;;;;;;;;;;5072918;28;20043;-58
2023/09/23 13:06:19;;;;;;;2.25;0.60;;;;;;;;;;5073267;28;20412;-58
2023/09/23 13:08:45;;;;;;;1.67;0.50;;;;;;;;;;5071294;28;20032;-58
2023/09/23 13:11:11;;;;;;;3.80;0.70;;;;;;;;;;5072911;28;20097;-58
2023/09/23 13:13:38;;;;;;;1.13;0.50;;;;;;;;;;5073079;28;20044;-58
2023/09/23 13:16:04;;;;;;;2.05;0.57;;;;;;;;;;5070834;28;20500;-58
2023/09/23 13:18:31;;;;;;;2.95;0.63;;;;;;;;;;5072886;28;20079;-58
2023/09/23 13:20:57;;;;;;;4.40;0.80;;;;;;;;;;5071987;28;20451;-58
2023/09/23 13:23:23;;;;;;;3.30;0.60;;;;;;;;;;5072729;28;20099;-58
2023/09/23 13:25:50;;;;;;;4.20;0.80;;;;;;;;;;5071688;28;20045;-58
2023/09/23 13:28:16;;;;;;;3.13;0.98;;;;;;;;;;5072132;28;20052;-58
2023/09/23 13:30:43;;;;;;;4.95;0.77;;;;;;;;;;5073185;28;20131;-58
2023/09/23 13:33:09;;;;;;;4.57;0.73;;;;;;;;;;5072585;28;20040;-58
2023/09/23 13:35:36;;;;;;;3.20;0.77;;;;;;;;;;5071184;28;20060;-58
2023/09/23 13:38:03;;;;;;;1.77;0.55;;;;;;;;;;5072390;28;20072;-58
2023/09/23 13:40:29;;;;;;;3.47;0.70;;;;;;;;;;5072443;28;20041;-58
2023/09/23 13:42:55;;;;;;;7.47;1.00;;;;;;;;;;5070319;28;20435;-58
2023/09/23 13:45:21;;;;;;;2.35;0.57;;;;;;;;;;5071172;28;20040;-58
2023/09/23 13:47:47;;;;;;;4.00;0.65;;;;;;;;;;5070645;28;20075;-58
2023/09/23 13:50:13;;;;;;;4.13;0.70;;;;;;;;;;5071203;28;20052;-58
2023/09/23 13:52:40;;;;;;;2.80;0.75;;;;;;;;;;5072280;28;20044;-58
2023/09/23 13:55:07;;;;;;;3.90;0.85;;;;;;;;;;5071962;28;20109;-58
2023/09/23 13:57:33;;;;;;;5.35;0.55;;;;;;;;;;5070705;28;20189;-58
2023/09/23 13:59:59;;;;;;;4.50;0.82;;;;;;;;;;5071712;28;20097;-58
2023/09/23 14:02:25;;;;;;;2.53;0.57;;;;;;;;;;5070606;28;20048;-58
2023/09/23 14:04:52;;;;;;;2.55;0.50;;;;;;;;;;5070872;28;20189;-58
2023/09/23 14:07:18;;;;;;;1.52;0.60;;;;;;;;;;5071700;28;20048;-58
2023/09/23 14:09:44;;;;;;;2.88;0.50;;;;;;;;;;5071657;28;20040;-58
2023/09/23 14:12:11;;;;;;;3.03;0.60;;;;;;;;;;5071167;28;20428;-58
2023/09/23 14:14:37;;;;;;;3.58;0.90;;;;;;;;;;5070977;28;20119;-58
2023/09/23 14:17:03;;;;;;;2.92;0.55;;;;;;;;;;5071127;28;20055;-58
2023/09/23 14:19:31;;;;;;;2.53;0.50;;;;;;;;;;5059951;28;20036;-58
2023/09/23 14:21:58;;;;;;;3.35;0.70;;;;;;;;;;5071494;28;20480;-58
2023/09/23 14:24:24;;;;;;;5.03;0.75;;;;;;;;;;5069462;28;20044;-58
2023/09/23 14:26:50;;;;;;;6.53;0.90;;;;;;;;;;5071265;28;20506;-58
2023/09/23 14:29:17;;;;;;;3.20;0.50;;;;;;;;;;5071448;28;20047;-58
2023/09/23 14:31:43;;;;;;;2.65;0.50;;;;;;;;;;5069061;28;20450;-58
2023/09/23 14:34:09;;;;;;;5.20;0.55;;;;;;;;;;5068941;28;20116;-57
2023/09/23 14:36:35;;;;;;;4.68;0.98;;;;;;;;;;5065884;28;20086;-57
2023/09/23 14:39:04;;;;;;;3.55;0.63;;;;;;;;;;5070463;28;20037;-57
2023/09/23 14:41:34;;;;;;;3.78;0.80;;;;;;;;;;5071360;28;20139;-57
2023/09/23 14:44:04;;;;;;;2.83;0.50;;;;;;;;;;5071306;28;20051;-57